sensor_id;sensor_type;location;lat;lon;timestamp;temperature;humidity
9107;DHT22;4589;48.690;8.952;2024-03-17T00:00:30;4.40;99.90
9107;DHT22;4589;48.690;8.952;2024-03-17T00:02:55;4.30;99.90
9107;DHT22;4589;48.690;8.952;2024-03-17T00:05:22;4.20;99.90
9107;DHT22;4589;48.690;8.952;2024-03-17T00:07:47;4.20;99.90
9107;DHT22;4589;48.690;8.952;2024-03-17T00:10:13;4.20;99.90
9107;DHT22;4589;48.690;8.952;2024-03-17T00:12:40;4.20;99.90
9107;DHT22;4589;48.690;8.952;2024-03-17T00:15:06;4.20;99.90
9107;DHT22;4589;48.690;8.952;2024-03-17T00:17:33;4.30;99.90
9107;DHT22;4589;48.690;8.952;2024-03-17T00:20:02;4.20;99.90
9107;DHT22;4589;48.690;8.952;2024-03-17T00:22:36;4.10;99.90
9107;DHT22;4589;48.690;8.952;2024-03-17T00:25:07;4.20;99.90
9107;DHT22;4589;48.690;8.952;2024-03-17T00:32:27;4.00;99.90
9107;DHT22;4589;48.690;8.952;2024-03-17T00:34:53;4.00;99.90
9107;DHT22;4589;48.690;8.952;2024-03-17T00:37:19;3.90;99.90
9107;DHT22;4589;48.690;8.952;2024-03-17T00:39:44;3.90;99.90
9107;DHT22;4589;48.690;8.952;2024-03-17T00:42:10;3.90;99.90
9107;DHT22;4589;48.690;8.952;2024-03-17T00:44:35;3.90;99.90
9107;DHT22;4589;48.690;8.952;2024-03-17T00:47:01;3.80;99.90
9107;DHT22;4589;48.690;8.952;2024-03-17T00:49:26;3.80;99.90
9107;DHT22;4589;48.690;8.952;2024-03-17T00:51:52;3.80;99.90
9107;DHT22;4589;48.690;8.952;2024-03-17T00:54:17;3.90;99.90
9107;DHT22;4589;48.690;8.952;2024-03-17T00:56:46;3.90;99.90
9107;DHT22;4589;48.690;8.952;2024-03-17T00:59:11;3.90;99.90
9107;DHT22;4589;48.690;8.952;2024-03-17T01:01:37;3.90;99.90
9107;DHT22;4589;48.690;8.952;2024-03-17T01:04:02;3.80;99.90
9107;DHT22;4589;48.690;8.952;2024-03-17T01:06:28;3.80;99.90
9107;DHT22;4589;48.690;8.952;2024-03-17T01:08:53;3.70;99.90
9107;DHT22;4589;48.690;8.952;2024-03-17T01:11:19;3.80;99.90
9107;DHT22;4589;48.690;8.952;2024-03-17T01:13:45;3.70;99.90
9107;DHT22;4589;48.690;8.952;2024-03-17T01:16:12;3.70;99.90
9107;DHT22;4589;48.690;8.952;2024-03-17T01:18:38;3.70;99.90
9107;DHT22;4589;48.690;8.952;2024-03-17T01:21:05;3.80;99.90
9107;DHT22;4589;48.690;8.952;2024-03-17T01:23:31;3.90;99.90
9107;DHT22;4589;48.690;8.952;2024-03-17T01:25:56;3.80;99.90
9107;DHT22;4589;48.690;8.952;2024-03-17T01:28:22;3.80;99.90
9107;DHT22;4589;48.690;8.952;2024-03-17T01:33:14;3.90;99.90
9107;DHT22;4589;48.690;8.952;2024-03-17T01:35:39;4.00;99.90
9107;DHT22;4589;48.690;8.952;2024-03-17T01:38:05;4.10;99.90
9107;DHT22;4589;48.690;8.952;2024-03-17T01:40:30;4.10;99.90
9107;DHT22;4589;48.690;8.952;2024-03-17T01:42:56;4.10;99.90
9107;DHT22;4589;48.690;8.952;2024-03-17T01:47:54;4.10;99.90
9107;DHT22;4589;48.690;8.952;2024-03-17T01:50:20;4.20;99.90
9107;DHT22;4589;48.690;8.952;2024-03-17T01:52:51;4.30;99.90
9107;DHT22;4589;48.690;8.952;2024-03-17T01:55:17;4.30;99.90
9107;DHT22;4589;48.690;8.952;2024-03-17T01:57:42;4.30;99.90
9107;DHT22;4589;48.690;8.952;2024-03-17T02:00:09;4.30;99.90
9107;DHT22;4589;48.690;8.952;2024-03-17T02:02:37;4.30;99.90
9107;DHT22;4589;48.690;8.952;2024-03-17T02:05:03;4.30;99.90
9107;DHT22;4589;48.690;8.952;2024-03-17T02:07:29;4.30;99.90
9107;DHT22;4589;48.690;8.952;2024-03-17T02:09:56;4.40;99.90
9107;DHT22;4589;48.690;8.952;2024-03-17T02:12:23;4.40;99.90
9107;DHT22;4589;48.690;8.952;2024-03-17T02:14:48;4.40;99.90
9107;DHT22;4589;48.690;8.952;2024-03-17T02:17:14;4.40;99.90
9107;DHT22;4589;48.690;8.952;2024-03-17T02:19:40;4.30;99.90
9107;DHT22;4589;48.690;8.952;2024-03-17T02:22:13;4.30;99.90
9107;DHT22;4589;48.690;8.952;2024-03-17T02:24:40;4.40;99.90
9107;DHT22;4589;48.690;8.952;2024-03-17T02:27:05;4.40;99.90
9107;DHT22;4589;48.690;8.952;2024-03-17T02:29:31;4.40;99.90
9107;DHT22;4589;48.690;8.952;2024-03-17T02:31:56;4.40;99.90
9107;DHT22;4589;48.690;8.952;2024-03-17T02:34:22;4.30;99.90
9107;DHT22;4589;48.690;8.952;2024-03-17T02:36:48;4.30;99.90
9107;DHT22;4589;48.690;8.952;2024-03-17T02:39:13;4.30;99.90
9107;DHT22;4589;48.690;8.952;2024-03-17T02:42:06;4.20;99.90
9107;DHT22;4589;48.690;8.952;2024-03-17T02:44:33;4.30;99.90
9107;DHT22;4589;48.690;8.952;2024-03-17T02:46:59;4.30;99.90
9107;DHT22;4589;48.690;8.952;2024-03-17T02:49:26;4.30;99.90
9107;DHT22;4589;48.690;8.952;2024-03-17T02:51:53;4.10;99.90
9107;DHT22;4589;48.690;8.952;2024-03-17T02:54:20;4.10;99.90
9107;DHT22;4589;48.690;8.952;2024-03-17T02:56:46;4.10;99.90
9107;DHT22;4589;48.690;8.952;2024-03-17T02:59:12;4.10;99.90
9107;DHT22;4589;48.690;8.952;2024-03-17T03:01:38;4.10;99.90
9107;DHT22;4589;48.690;8.952;2024-03-17T03:06:29;4.10;99.90
9107;DHT22;4589;48.690;8.952;2024-03-17T03:11:21;4.10;99.90
9107;DHT22;4589;48.690;8.952;2024-03-17T03:13:46;4.00;99.90
9107;DHT22;4589;48.690;8.952;2024-03-17T03:16:13;4.10;99.90
9107;DHT22;4589;48.690;8.952;2024-03-17T03:18:39;4.10;99.90
9107;DHT22;4589;48.690;8.952;2024-03-17T03:21:06;4.10;99.90
9107;DHT22;4589;48.690;8.952;2024-03-17T03:23:32;4.10;99.90
9107;DHT22;4589;48.690;8.952;2024-03-17T03:25:59;4.10;99.90
9107;DHT22;4589;48.690;8.952;2024-03-17T03:28:26;4.00;99.90
9107;DHT22;4589;48.690;8.952;2024-03-17T03:30:52;3.90;99.90
9107;DHT22;4589;48.690;8.952;2024-03-17T03:33:19;4.10;99.90
9107;DHT22;4589;48.690;8.952;2024-03-17T03:35:44;4.20;99.90
9107;DHT22;4589;48.690;8.952;2024-03-17T03:38:11;4.20;99.90
9107;DHT22;4589;48.690;8.952;2024-03-17T03:40:37;4.20;99.90
9107;DHT22;4589;48.690;8.952;2024-03-17T03:45:28;4.20;99.90
9107;DHT22;4589;48.690;8.952;2024-03-17T03:47:54;4.20;99.90
9107;DHT22;4589;48.690;8.952;2024-03-17T03:50:21;4.10;99.90
9107;DHT22;4589;48.690;8.952;2024-03-17T03:52:47;4.20;99.90
9107;DHT22;4589;48.690;8.952;2024-03-17T03:57:43;4.10;99.90
9107;DHT22;4589;48.690;8.952;2024-03-17T04:00:11;4.10;99.90
9107;DHT22;4589;48.690;8.952;2024-03-17T04:02:47;4.10;99.90
9107;DHT22;4589;48.690;8.952;2024-03-17T04:05:14;4.00;99.90
9107;DHT22;4589;48.690;8.952;2024-03-17T04:07:39;4.00;99.90
9107;DHT22;4589;48.690;8.952;2024-03-17T04:10:06;3.80;99.90
9107;DHT22;4589;48.690;8.952;2024-03-17T04:12:32;3.80;99.90
9107;DHT22;4589;48.690;8.952;2024-03-17T04:17:24;3.80;99.90
9107;DHT22;4589;48.690;8.952;2024-03-17T04:19:51;3.90;99.90
9107;DHT22;4589;48.690;8.952;2024-03-17T04:22:17;3.90;99.90
9107;DHT22;4589;48.690;8.952;2024-03-17T04:24:47;3.90;99.90
9107;DHT22;4589;48.690;8.952;2024-03-17T04:27:14;4.00;99.90
9107;DHT22;4589;48.690;8.952;2024-03-17T04:29:40;3.80;99.90
9107;DHT22;4589;48.690;8.952;2024-03-17T04:32:06;3.80;99.90
9107;DHT22;4589;48.690;8.952;2024-03-17T04:34:31;3.80;99.90
9107;DHT22;4589;48.690;8.952;2024-03-17T04:36:58;3.70;99.90
9107;DHT22;4589;48.690;8.952;2024-03-17T04:39:24;3.70;99.90
9107;DHT22;4589;48.690;8.952;2024-03-17T04:41:50;3.70;99.90
9107;DHT22;4589;48.690;8.952;2024-03-17T04:44:16;3.70;99.90
9107;DHT22;4589;48.690;8.952;2024-03-17T04:46:42;3.70;99.90
9107;DHT22;4589;48.690;8.952;2024-03-17T04:49:08;3.70;99.90
9107;DHT22;4589;48.690;8.952;2024-03-17T04:51:34;3.80;99.90
9107;DHT22;4589;48.690;8.952;2024-03-17T04:54:00;3.80;99.90
9107;DHT22;4589;48.690;8.952;2024-03-17T04:56:26;3.80;99.90
9107;DHT22;4589;48.690;8.952;2024-03-17T04:58:51;3.80;99.90
9107;DHT22;4589;48.690;8.952;2024-03-17T05:01:17;3.80;99.90
9107;DHT22;4589;48.690;8.952;2024-03-17T05:03:42;3.80;99.90
9107;DHT22;4589;48.690;8.952;2024-03-17T05:06:08;3.80;99.90
9107;DHT22;4589;48.690;8.952;2024-03-17T05:08:34;3.70;99.90
9107;DHT22;4589;48.690;8.952;2024-03-17T05:11:01;3.70;99.90
9107;DHT22;4589;48.690;8.952;2024-03-17T05:13:30;3.70;99.90
9107;DHT22;4589;48.690;8.952;2024-03-17T05:15:56;3.70;99.90
9107;DHT22;4589;48.690;8.952;2024-03-17T05:18:23;3.60;99.90
9107;DHT22;4589;48.690;8.952;2024-03-17T05:20:58;3.70;99.90
9107;DHT22;4589;48.690;8.952;2024-03-17T05:23:26;3.80;99.90
9107;DHT22;4589;48.690;8.952;2024-03-17T05:25:52;3.70;99.90
9107;DHT22;4589;48.690;8.952;2024-03-17T05:28:18;3.70;99.90
9107;DHT22;4589;48.690;8.952;2024-03-17T05:30:43;3.70;99.90
9107;DHT22;4589;48.690;8.952;2024-03-17T05:33:09;3.70;99.90
9107;DHT22;4589;48.690;8.952;2024-03-17T05:38:01;3.60;99.90
9107;DHT22;4589;48.690;8.952;2024-03-17T05:40:27;3.60;99.90
9107;DHT22;4589;48.690;8.952;2024-03-17T05:42:53;3.50;99.90
9107;DHT22;4589;48.690;8.952;2024-03-17T05:45:18;3.60;99.90
9107;DHT22;4589;48.690;8.952;2024-03-17T05:47:44;3.60;99.90
9107;DHT22;4589;48.690;8.952;2024-03-17T05:52:37;3.70;99.90
9107;DHT22;4589;48.690;8.952;2024-03-17T05:55:03;3.60;99.90
9107;DHT22;4589;48.690;8.952;2024-03-17T06:02:21;3.70;99.90
9107;DHT22;4589;48.690;8.952;2024-03-17T06:04:46;3.70;99.90
9107;DHT22;4589;48.690;8.952;2024-03-17T06:07:12;3.70;99.90
9107;DHT22;4589;48.690;8.952;2024-03-17T06:09:37;3.80;99.90
9107;DHT22;4589;48.690;8.952;2024-03-17T06:12:03;3.90;99.90
9107;DHT22;4589;48.690;8.952;2024-03-17T06:14:29;4.00;99.90
9107;DHT22;4589;48.690;8.952;2024-03-17T06:16:54;4.10;99.90
9107;DHT22;4589;48.690;8.952;2024-03-17T06:19:20;4.10;99.90
9107;DHT22;4589;48.690;8.952;2024-03-17T06:21:45;4.30;99.90
9107;DHT22;4589;48.690;8.952;2024-03-17T06:24:11;4.40;99.90
9107;DHT22;4589;48.690;8.952;2024-03-17T06:26:36;4.50;99.90
9107;DHT22;4589;48.690;8.952;2024-03-17T06:29:02;4.50;99.90
9107;DHT22;4589;48.690;8.952;2024-03-17T06:31:27;4.60;99.90
9107;DHT22;4589;48.690;8.952;2024-03-17T06:36:19;4.60;99.90
9107;DHT22;4589;48.690;8.952;2024-03-17T06:38:44;4.80;99.90
9107;DHT22;4589;48.690;8.952;2024-03-17T06:43:37;5.00;99.90
9107;DHT22;4589;48.690;8.952;2024-03-17T06:46:04;5.00;99.90
9107;DHT22;4589;48.690;8.952;2024-03-17T06:48:30;5.30;99.90
9107;DHT22;4589;48.690;8.952;2024-03-17T06:50:56;5.50;99.90
9107;DHT22;4589;48.690;8.952;2024-03-17T06:53:22;5.50;99.90
9107;DHT22;4589;48.690;8.952;2024-03-17T06:55:58;5.90;99.90
9107;DHT22;4589;48.690;8.952;2024-03-17T06:58:25;6.00;99.90
9107;DHT22;4589;48.690;8.952;2024-03-17T07:01:00;6.20;99.90
9107;DHT22;4589;48.690;8.952;2024-03-17T07:03:27;6.20;99.90
9107;DHT22;4589;48.690;8.952;2024-03-17T07:05:54;6.20;99.90
9107;DHT22;4589;48.690;8.952;2024-03-17T07:08:20;6.50;99.90
9107;DHT22;4589;48.690;8.952;2024-03-17T07:11:02;6.60;99.90
9107;DHT22;4589;48.690;8.952;2024-03-17T07:13:30;6.70;99.90
9107;DHT22;4589;48.690;8.952;2024-03-17T07:15:56;6.90;99.90
9107;DHT22;4589;48.690;8.952;2024-03-17T07:18:21;7.00;99.90
9107;DHT22;4589;48.690;8.952;2024-03-17T07:20:47;7.20;99.90
9107;DHT22;4589;48.690;8.952;2024-03-17T07:23:15;7.20;99.90
9107;DHT22;4589;48.690;8.952;2024-03-17T07:25:41;7.40;99.90
9107;DHT22;4589;48.690;8.952;2024-03-17T07:28:08;7.50;99.90
9107;DHT22;4589;48.690;8.952;2024-03-17T07:30:34;7.60;99.90
9107;DHT22;4589;48.690;8.952;2024-03-17T07:32:59;7.60;99.90
9107;DHT22;4589;48.690;8.952;2024-03-17T07:35:25;8.20;99.90
9107;DHT22;4589;48.690;8.952;2024-03-17T07:37:50;8.20;99.90
9107;DHT22;4589;48.690;8.952;2024-03-17T07:40:16;8.50;99.90
9107;DHT22;4589;48.690;8.952;2024-03-17T07:42:42;8.70;99.90
9107;DHT22;4589;48.690;8.952;2024-03-17T07:45:07;8.80;99.90
9107;DHT22;4589;48.690;8.952;2024-03-17T07:47:33;9.20;99.90
9107;DHT22;4589;48.690;8.952;2024-03-17T07:50:03;9.40;99.90
9107;DHT22;4589;48.690;8.952;2024-03-17T07:52:31;9.50;99.90
9107;DHT22;4589;48.690;8.952;2024-03-17T07:54:57;9.50;99.90
9107;DHT22;4589;48.690;8.952;2024-03-17T07:57:22;9.50;99.90
9107;DHT22;4589;48.690;8.952;2024-03-17T07:59:51;9.50;99.90
9107;DHT22;4589;48.690;8.952;2024-03-17T08:02:17;9.40;99.90
9107;DHT22;4589;48.690;8.952;2024-03-17T08:04:42;9.70;99.90
9107;DHT22;4589;48.690;8.952;2024-03-17T08:07:10;10.50;99.90
9107;DHT22;4589;48.690;8.952;2024-03-17T08:09:36;10.00;99.90
9107;DHT22;4589;48.690;8.952;2024-03-17T08:12:01;9.80;99.90
9107;DHT22;4589;48.690;8.952;2024-03-17T08:14:32;10.00;99.90
9107;DHT22;4589;48.690;8.952;2024-03-17T08:16:58;10.10;99.90
9107;DHT22;4589;48.690;8.952;2024-03-17T08:19:23;10.10;99.90
9107;DHT22;4589;48.690;8.952;2024-03-17T08:21:49;10.30;99.90
9107;DHT22;4589;48.690;8.952;2024-03-17T08:24:14;10.80;99.90
9107;DHT22;4589;48.690;8.952;2024-03-17T08:26:40;11.20;99.90
9107;DHT22;4589;48.690;8.952;2024-03-17T08:29:06;11.40;99.90
9107;DHT22;4589;48.690;8.952;2024-03-17T08:31:32;11.80;99.90
9107;DHT22;4589;48.690;8.952;2024-03-17T08:33:57;12.00;99.90
9107;DHT22;4589;48.690;8.952;2024-03-17T08:36:23;11.60;99.90
9107;DHT22;4589;48.690;8.952;2024-03-17T08:38:50;12.30;99.90
9107;DHT22;4589;48.690;8.952;2024-03-17T08:41:16;12.20;99.90
9107;DHT22;4589;48.690;8.952;2024-03-17T08:43:41;12.30;99.90
9107;DHT22;4589;48.690;8.952;2024-03-17T08:46:09;12.80;99.90
9107;DHT22;4589;48.690;8.952;2024-03-17T08:48:37;12.60;99.90
9107;DHT22;4589;48.690;8.952;2024-03-17T08:51:04;13.50;99.90
9107;DHT22;4589;48.690;8.952;2024-03-17T08:53:30;13.80;99.90
9107;DHT22;4589;48.690;8.952;2024-03-17T08:55:57;13.80;99.90
9107;DHT22;4589;48.690;8.952;2024-03-17T08:58:23;13.70;99.90
9107;DHT22;4589;48.690;8.952;2024-03-17T09:00:49;13.40;99.90
9107;DHT22;4589;48.690;8.952;2024-03-17T09:03:14;13.40;99.90
9107;DHT22;4589;48.690;8.952;2024-03-17T09:05:41;13.40;99.90
9107;DHT22;4589;48.690;8.952;2024-03-17T09:08:08;13.80;99.90
9107;DHT22;4589;48.690;8.952;2024-03-17T09:10:43;13.70;99.90
9107;DHT22;4589;48.690;8.952;2024-03-17T09:13:16;13.90;99.90
9107;DHT22;4589;48.690;8.952;2024-03-17T09:15:58;13.50;99.90
9107;DHT22;4589;48.690;8.952;2024-03-17T09:18:28;13.40;99.90
9107;DHT22;4589;48.690;8.952;2024-03-17T09:21:01;13.80;99.90
9107;DHT22;4589;48.690;8.952;2024-03-17T09:23:28;13.40;99.90
9107;DHT22;4589;48.690;8.952;2024-03-17T09:28:26;13.60;99.90
9107;DHT22;4589;48.690;8.952;2024-03-17T09:30:52;14.00;99.90
9107;DHT22;4589;48.690;8.952;2024-03-17T09:33:25;14.00;99.90
9107;DHT22;4589;48.690;8.952;2024-03-17T09:38:22;14.20;99.90
9107;DHT22;4589;48.690;8.952;2024-03-17T09:40:48;13.70;99.90
9107;DHT22;4589;48.690;8.952;2024-03-17T09:43:25;13.60;99.90
9107;DHT22;4589;48.690;8.952;2024-03-17T09:45:51;13.60;99.90
9107;DHT22;4589;48.690;8.952;2024-03-17T09:48:20;13.40;99.90
9107;DHT22;4589;48.690;8.952;2024-03-17T09:50:52;13.40;99.90
9107;DHT22;4589;48.690;8.952;2024-03-17T09:53:29;13.40;99.90
9107;DHT22;4589;48.690;8.952;2024-03-17T09:56:06;13.60;99.90
9107;DHT22;4589;48.690;8.952;2024-03-17T09:58:34;13.90;99.90
9107;DHT22;4589;48.690;8.952;2024-03-17T10:01:00;13.90;99.90
9107;DHT22;4589;48.690;8.952;2024-03-17T10:06:14;14.60;99.90
9107;DHT22;4589;48.690;8.952;2024-03-17T10:11:09;15.80;99.90
9107;DHT22;4589;48.690;8.952;2024-03-17T10:13:36;16.70;99.90
9107;DHT22;4589;48.690;8.952;2024-03-17T10:16:02;18.00;99.90
9107;DHT22;4589;48.690;8.952;2024-03-17T10:18:28;18.70;99.90
9107;DHT22;4589;48.690;8.952;2024-03-17T10:20:53;19.20;99.90
9107;DHT22;4589;48.690;8.952;2024-03-17T10:23:23;19.00;99.90
9107;DHT22;4589;48.690;8.952;2024-03-17T10:25:49;17.90;99.90
9107;DHT22;4589;48.690;8.952;2024-03-17T10:28:16;17.20;99.90
9107;DHT22;4589;48.690;8.952;2024-03-17T10:30:59;16.30;99.90
9107;DHT22;4589;48.690;8.952;2024-03-17T10:33:26;16.00;99.90
9107;DHT22;4589;48.690;8.952;2024-03-17T10:35:58;16.40;99.90
9107;DHT22;4589;48.690;8.952;2024-03-17T10:38:28;16.60;99.90
9107;DHT22;4589;48.690;8.952;2024-03-17T10:40:53;18.60;99.90
9107;DHT22;4589;48.690;8.952;2024-03-17T10:43:19;17.50;99.90
9107;DHT22;4589;48.690;8.952;2024-03-17T10:45:51;17.00;99.90
9107;DHT22;4589;48.690;8.952;2024-03-17T10:48:19;16.90;99.90
9107;DHT22;4589;48.690;8.952;2024-03-17T10:50:48;16.30;99.90
9107;DHT22;4589;48.690;8.952;2024-03-17T10:53:19;15.30;99.90
9107;DHT22;4589;48.690;8.952;2024-03-17T10:56:05;15.00;99.90
9107;DHT22;4589;48.690;8.952;2024-03-17T10:58:44;15.10;99.90
9107;DHT22;4589;48.690;8.952;2024-03-17T11:01:14;15.00;99.90
9107;DHT22;4589;48.690;8.952;2024-03-17T11:03:41;14.80;99.90
9107;DHT22;4589;48.690;8.952;2024-03-17T11:06:07;14.80;99.90
9107;DHT22;4589;48.690;8.952;2024-03-17T11:08:34;14.50;99.90
9107;DHT22;4589;48.690;8.952;2024-03-17T11:11:01;16.00;99.90
9107;DHT22;4589;48.690;8.952;2024-03-17T11:13:30;14.80;99.90
9107;DHT22;4589;48.690;8.952;2024-03-17T11:15:57;14.80;99.90
9107;DHT22;4589;48.690;8.952;2024-03-17T11:23:33;15.30;99.90
9107;DHT22;4589;48.690;8.952;2024-03-17T11:25:59;16.20;99.90
9107;DHT22;4589;48.690;8.952;2024-03-17T11:31:38;17.50;99.90
9107;DHT22;4589;48.690;8.952;2024-03-17T11:34:07;15.50;99.90
9107;DHT22;4589;48.690;8.952;2024-03-17T11:36:50;15.50;99.90
9107;DHT22;4589;48.690;8.952;2024-03-17T11:39:16;16.00;99.90
9107;DHT22;4589;48.690;8.952;2024-03-17T11:41:53;16.20;99.90
9107;DHT22;4589;48.690;8.952;2024-03-17T11:49:30;15.40;99.90
9107;DHT22;4589;48.690;8.952;2024-03-17T11:52:08;15.00;99.90
9107;DHT22;4589;48.690;8.952;2024-03-17T11:54:35;14.90;99.90
9107;DHT22;4589;48.690;8.952;2024-03-17T11:57:25;15.30;99.90
9107;DHT22;4589;48.690;8.952;2024-03-17T11:59:52;15.10;99.90
9107;DHT22;4589;48.690;8.952;2024-03-17T12:04:47;14.80;99.90
9107;DHT22;4589;48.690;8.952;2024-03-17T12:07:18;14.80;99.90
9107;DHT22;4589;48.690;8.952;2024-03-17T12:09:47;14.40;99.90
9107;DHT22;4589;48.690;8.952;2024-03-17T12:12:22;14.30;99.90
9107;DHT22;4589;48.690;8.952;2024-03-17T12:14:48;14.60;99.90
9107;DHT22;4589;48.690;8.952;2024-03-17T12:17:22;15.30;99.90
9107;DHT22;4589;48.690;8.952;2024-03-17T12:19:49;14.50;99.90
9107;DHT22;4589;48.690;8.952;2024-03-17T12:22:23;14.40;99.90
9107;DHT22;4589;48.690;8.952;2024-03-17T12:24:54;14.30;99.90
9107;DHT22;4589;48.690;8.952;2024-03-17T12:27:22;14.30;99.90
9107;DHT22;4589;48.690;8.952;2024-03-17T12:29:48;14.10;99.90
9107;DHT22;4589;48.690;8.952;2024-03-17T12:32:19;15.20;99.90
9107;DHT22;4589;48.690;8.952;2024-03-17T12:34:49;13.90;99.90
9107;DHT22;4589;48.690;8.952;2024-03-17T12:37:19;14.00;99.90
9107;DHT22;4589;48.690;8.952;2024-03-17T12:39:46;14.20;99.90
9107;DHT22;4589;48.690;8.952;2024-03-17T12:42:13;14.10;99.90
9107;DHT22;4589;48.690;8.952;2024-03-17T12:44:46;14.30;99.90
9107;DHT22;4589;48.690;8.952;2024-03-17T12:47:20;14.40;99.90
9107;DHT22;4589;48.690;8.952;2024-03-17T12:49:53;14.80;99.90
9107;DHT22;4589;48.690;8.952;2024-03-17T12:52:24;14.80;99.90
9107;DHT22;4589;48.690;8.952;2024-03-17T12:55:18;14.70;99.90
9107;DHT22;4589;48.690;8.952;2024-03-17T13:00:56;15.50;99.90
9107;DHT22;4589;48.690;8.952;2024-03-17T13:03:24;16.40;99.90
9107;DHT22;4589;48.690;8.952;2024-03-17T13:05:50;16.10;99.90
9107;DHT22;4589;48.690;8.952;2024-03-17T13:08:17;16.10;99.90
9107;DHT22;4589;48.690;8.952;2024-03-17T13:10:42;16.00;99.90
9107;DHT22;4589;48.690;8.952;2024-03-17T13:13:09;15.60;99.90
9107;DHT22;4589;48.690;8.952;2024-03-17T13:15:35;15.80;99.90
9107;DHT22;4589;48.690;8.952;2024-03-17T13:18:02;15.60;99.90
9107;DHT22;4589;48.690;8.952;2024-03-17T13:20:30;15.60;99.90
9107;DHT22;4589;48.690;8.952;2024-03-17T13:22:56;15.30;99.90
9107;DHT22;4589;48.690;8.952;2024-03-17T13:25:24;15.20;99.90
9107;DHT22;4589;48.690;8.952;2024-03-17T13:27:52;15.50;99.90
9107;DHT22;4589;48.690;8.952;2024-03-17T13:30:20;15.60;99.90
9107;DHT22;4589;48.690;8.952;2024-03-17T13:32:48;15.10;99.90
9107;DHT22;4589;48.690;8.952;2024-03-17T13:35:17;15.20;99.90
9107;DHT22;4589;48.690;8.952;2024-03-17T13:37:45;15.00;99.90
9107;DHT22;4589;48.690;8.952;2024-03-17T13:40:11;15.10;99.90
9107;DHT22;4589;48.690;8.952;2024-03-17T13:42:38;15.10;99.90
9107;DHT22;4589;48.690;8.952;2024-03-17T13:45:05;15.30;99.90
9107;DHT22;4589;48.690;8.952;2024-03-17T13:47:31;15.40;99.90
9107;DHT22;4589;48.690;8.952;2024-03-17T13:49:58;15.50;99.90
9107;DHT22;4589;48.690;8.952;2024-03-17T13:52:24;15.40;99.90
9107;DHT22;4589;48.690;8.952;2024-03-17T13:54:49;15.40;99.90
9107;DHT22;4589;48.690;8.952;2024-03-17T13:57:15;15.70;99.90
9107;DHT22;4589;48.690;8.952;2024-03-17T13:59:42;15.80;99.90
9107;DHT22;4589;48.690;8.952;2024-03-17T14:02:12;15.50;99.90
9107;DHT22;4589;48.690;8.952;2024-03-17T14:04:38;15.50;99.90
9107;DHT22;4589;48.690;8.952;2024-03-17T14:07:03;15.10;99.90
9107;DHT22;4589;48.690;8.952;2024-03-17T14:09:30;15.20;99.90
9107;DHT22;4589;48.690;8.952;2024-03-17T14:11:56;14.90;99.90
9107;DHT22;4589;48.690;8.952;2024-03-17T14:14:23;14.90;99.90
9107;DHT22;4589;48.690;8.952;2024-03-17T14:16:48;14.70;99.90
9107;DHT22;4589;48.690;8.952;2024-03-17T14:19:14;14.70;99.90
9107;DHT22;4589;48.690;8.952;2024-03-17T14:21:40;14.50;99.90
9107;DHT22;4589;48.690;8.952;2024-03-17T14:24:05;14.40;99.90
9107;DHT22;4589;48.690;8.952;2024-03-17T14:26:33;14.30;99.90
9107;DHT22;4589;48.690;8.952;2024-03-17T14:29:01;15.00;99.90
9107;DHT22;4589;48.690;8.952;2024-03-17T14:31:32;15.00;99.90
9107;DHT22;4589;48.690;8.952;2024-03-17T14:34:04;15.00;99.90
9107;DHT22;4589;48.690;8.952;2024-03-17T14:36:33;14.70;99.90
9107;DHT22;4589;48.690;8.952;2024-03-17T14:38:59;14.70;99.90
9107;DHT22;4589;48.690;8.952;2024-03-17T14:41:28;14.80;99.90
9107;DHT22;4589;48.690;8.952;2024-03-17T14:43:54;14.80;99.90
9107;DHT22;4589;48.690;8.952;2024-03-17T14:46:19;14.80;99.90
9107;DHT22;4589;48.690;8.952;2024-03-17T14:48:45;14.70;99.90
9107;DHT22;4589;48.690;8.952;2024-03-17T14:51:11;14.50;99.90
9107;DHT22;4589;48.690;8.952;2024-03-17T14:53:37;14.60;99.90
9107;DHT22;4589;48.690;8.952;2024-03-17T14:56:08;14.80;99.90
9107;DHT22;4589;48.690;8.952;2024-03-17T14:58:34;14.90;99.90
9107;DHT22;4589;48.690;8.952;2024-03-17T15:01:00;14.90;99.90
9107;DHT22;4589;48.690;8.952;2024-03-17T15:03:25;14.90;99.90
9107;DHT22;4589;48.690;8.952;2024-03-17T15:05:51;14.80;99.90
9107;DHT22;4589;48.690;8.952;2024-03-17T15:08:17;14.90;99.90
9107;DHT22;4589;48.690;8.952;2024-03-17T15:10:42;14.80;99.90
9107;DHT22;4589;48.690;8.952;2024-03-17T15:13:08;14.80;99.90
9107;DHT22;4589;48.690;8.952;2024-03-17T15:15:36;14.70;99.90
9107;DHT22;4589;48.690;8.952;2024-03-17T15:18:02;14.60;99.90
9107;DHT22;4589;48.690;8.952;2024-03-17T15:20:29;14.50;99.90
9107;DHT22;4589;48.690;8.952;2024-03-17T15:22:54;14.50;99.90
9107;DHT22;4589;48.690;8.952;2024-03-17T15:25:20;14.50;99.90
9107;DHT22;4589;48.690;8.952;2024-03-17T15:27:46;14.50;99.90
9107;DHT22;4589;48.690;8.952;2024-03-17T15:30:15;14.20;99.90
9107;DHT22;4589;48.690;8.952;2024-03-17T15:32:47;14.00;99.90
9107;DHT22;4589;48.690;8.952;2024-03-17T15:35:13;13.70;99.90
9107;DHT22;4589;48.690;8.952;2024-03-17T15:37:42;13.60;99.90
9107;DHT22;4589;48.690;8.952;2024-03-17T15:40:10;13.50;99.90
9107;DHT22;4589;48.690;8.952;2024-03-17T15:42:45;13.40;99.90
9107;DHT22;4589;48.690;8.952;2024-03-17T15:45:12;13.20;99.90
9107;DHT22;4589;48.690;8.952;2024-03-17T15:47:37;13.00;99.90
9107;DHT22;4589;48.690;8.952;2024-03-17T15:50:03;12.80;99.90
9107;DHT22;4589;48.690;8.952;2024-03-17T15:52:29;12.80;99.90
9107;DHT22;4589;48.690;8.952;2024-03-17T15:54:56;12.70;99.90
9107;DHT22;4589;48.690;8.952;2024-03-17T15:57:22;12.70;99.90
9107;DHT22;4589;48.690;8.952;2024-03-17T15:59:48;12.70;99.90
9107;DHT22;4589;48.690;8.952;2024-03-17T16:02:13;12.60;99.90
9107;DHT22;4589;48.690;8.952;2024-03-17T16:04:39;12.50;99.90
9107;DHT22;4589;48.690;8.952;2024-03-17T16:07:06;12.50;99.90
9107;DHT22;4589;48.690;8.952;2024-03-17T16:09:32;12.50;99.90
9107;DHT22;4589;48.690;8.952;2024-03-17T16:11:58;12.40;99.90
9107;DHT22;4589;48.690;8.952;2024-03-17T16:14:24;12.40;99.90
9107;DHT22;4589;48.690;8.952;2024-03-17T16:16:50;12.40;99.90
9107;DHT22;4589;48.690;8.952;2024-03-17T16:19:16;12.20;99.90
9107;DHT22;4589;48.690;8.952;2024-03-17T16:21:42;12.10;99.90
9107;DHT22;4589;48.690;8.952;2024-03-17T16:24:11;12.20;99.90
9107;DHT22;4589;48.690;8.952;2024-03-17T16:26:37;12.20;99.90
9107;DHT22;4589;48.690;8.952;2024-03-17T16:29:06;12.20;99.90
9107;DHT22;4589;48.690;8.952;2024-03-17T16:31:32;12.10;99.90
9107;DHT22;4589;48.690;8.952;2024-03-17T16:33:57;12.40;99.90
9107;DHT22;4589;48.690;8.952;2024-03-17T16:36:25;12.00;99.90
9107;DHT22;4589;48.690;8.952;2024-03-17T16:38:52;12.00;99.90
9107;DHT22;4589;48.690;8.952;2024-03-17T16:41:18;11.80;99.90
9107;DHT22;4589;48.690;8.952;2024-03-17T16:49:21;12.70;99.90
9107;DHT22;4589;48.690;8.952;2024-03-17T16:51:48;11.60;99.90
9107;DHT22;4589;48.690;8.952;2024-03-17T16:54:18;11.90;99.90
9107;DHT22;4589;48.690;8.952;2024-03-17T16:56:44;11.40;99.90
9107;DHT22;4589;48.690;8.952;2024-03-17T16:59:10;11.40;99.90
9107;DHT22;4589;48.690;8.952;2024-03-17T17:01:37;11.30;99.90
9107;DHT22;4589;48.690;8.952;2024-03-17T17:04:04;11.20;99.90
9107;DHT22;4589;48.690;8.952;2024-03-17T17:06:32;11.20;99.90
9107;DHT22;4589;48.690;8.952;2024-03-17T17:08:57;11.10;99.90
9107;DHT22;4589;48.690;8.952;2024-03-17T17:11:23;11.00;99.90
9107;DHT22;4589;48.690;8.952;2024-03-17T17:13:50;11.00;99.90
9107;DHT22;4589;48.690;8.952;2024-03-17T17:16:16;10.90;99.90
9107;DHT22;4589;48.690;8.952;2024-03-17T17:18:52;10.80;99.90
9107;DHT22;4589;48.690;8.952;2024-03-17T17:21:21;10.80;99.90